Terminal Aerodrome Forecast
Issued by NWS

Home | Current Version | Previous Version | Text Only | Print | Product List | Glossary On
Versions: 1 2 3 4 5 6 7 8 9 10 11 12 13 14 15 16
000
FTAK31 PAJN 031700
TAFAWG
TAF
PAWG 031739Z 0318/0418 00000KT P6SM VCFG FEW001 FEW200
     FM031900 32005KT P6SM FEW030 SCT200
     FM032300 32010KT P6SM FEW050 SCT200
     FM040300 VRB04KT P6SM FEW100 SCT200
     FM041100 08006KT P6SM FEW005 SCT100
      AMD LTD TO CLD VIS AND WIND 0406/0415=

USA.gov is the U.S. government's official web portal to all federal, state and local government web resources and services.